Locharbriggs, United Kingdom
Current Conditions -  °F | °C
As of 10:50 AM on Friday 19 Dec 2014 (Local Time) from EGOM Reporting Station
Scattered Clouds Scattered Clouds  
Wind Chill: -4°   Ceiling: Unl
Heat Index:   Visibility: 6mi
Dew Point:   Wind: 26mph
Humidity: 93%   Direction: 250°WSW
Pressure: 29.65"   Gusts: NA
Location:  55.1°N, 3.58°W
Report Text: EGOM 191050Z AUTO 25023KT 9999 FEW023/// SCT050/// 03/02 Q1004 RERA
Loading
Personal Weather Stations






























Interactive Weather Map New forecast layout! Learn more

10-Day Weather Forecast

Advertisements
Track Severe Weather on mobile